Beaver County Airport
KBVI : now visible

Airfield :











YOU CAN JOIN US ON...

 
LOGIN :

Register | Disclaimer

   EN    FR    IT 

 









Legend :    VFR   Marginal VFR   IFR   Intensive IFR   Very Intensive IFR
Visi :
Ceiling :
>= 8 km
>= 3000ft
5 to 8 km
1000 to 3000 ft
1500m to 5 km
500 to 1000 ft
800 to 1500m
200 to 500 ft
< 800m
< 200 ft
Symbols :   Thunderstorms  Fog  Heavy snow  Heavy precipitations  Wind > 20 kt






- Airport Elevation : 1253 ft


KBVI - Beaver County

CURRENT METAR :
  • 110315Z AUTO 20005KT 10SM CLR 25/17 A2998 RMK AO2 T02500169

EXPIRED METARs :
  • 110255Z AUTO 21006KT 10SM CLR 25/17 A2999 RMK AO2 T02520169
  • 110235Z AUTO 21005KT 10SM CLR 26/17 A2999 RMK AO2 T02550168
  • 110215Z AUTO 21005KT 10SM CLR 26/17 A2999 RMK AO2 T02550169
  • 110155Z AUTO 21004KT 10SM SCT080 26/17 A2999 RMK AO2 T02570169
  • 110135Z AUTO 21004KT 10SM SCT080 26/17 A2998 RMK AO2 T02560170
  • 110115Z AUTO 20005KT 10SM CLR 26/17 A2998 RMK AO2 T02600169
  • 110055Z AUTO 19003KT 10SM CLR 26/17 A2998 RMK AO2 T02620167
  • 110035Z AUTO 21004KT 10SM CLR 27/17 A2997 RMK AO2 T02660170

TAF KBVI
Valid from the 11 at 00:00 until the 12 at 00:00 UTC


102320Z 1100/1124 22005KT P6SM SKC
FM111600 21006KT P6SM BKN035
KZOB FIR / North America



MET'MAP, your aeronautical weather chart ! - Copyright ORBIFLY December 2007 - Disclaimer

ORBIFLY MET'MAP TEAM :

Programming & Development : Alexandra Zaïnal
Concept & original design : Baudouin d'Aumeries
Assistance for programming : Marc-Olivier Méhu
Technical & hardware support : Manuel Goepfert

Contact : metmap@orbifly.com




SOURCES & CREDITS :

   NOAA       Earth
Advisory